Aviation Digital Data Service (ADDS)

Output produced by METARs form (1803 UTC 02 December 2016)
found at http://aviationweather.gov/adds/metars/
 
KYNG 021728Z 0218/0318 24010KT P6SM OVC025 
     FM021900 27010G15KT P6SM OVC025 
     FM022300 27010KT P6SM OVC025 
     FM030300 27010KT P6SM OVC015 
     FM031000 28007KT 6SM HZ OVC007 
     FM031600 28009KT P6SM OVC015